createdAt,value
2018-07-20T00:01:06.766Z,19.30
2018-07-20T00:03:11.732Z,19.30
2018-07-20T00:05:16.411Z,19.20
2018-07-20T00:07:22.532Z,19.20
2018-07-20T00:09:27.328Z,19.20
2018-07-20T00:11:32.601Z,19.20
2018-07-20T00:13:37.565Z,19.20
2018-07-20T00:15:42.397Z,19.10
2018-07-20T00:17:47.161Z,19.10
2018-07-20T00:19:51.900Z,19.10
2018-07-20T00:21:56.506Z,19.00
2018-07-20T00:24:01.567Z,19.00
2018-07-20T00:26:06.985Z,18.90
2018-07-20T00:28:11.758Z,18.90
2018-07-20T00:30:16.988Z,18.90
2018-07-20T00:32:21.818Z,18.80
2018-07-20T00:34:26.736Z,18.80
2018-07-20T00:36:32.123Z,18.80
2018-07-20T00:38:36.901Z,18.70
2018-07-20T00:40:41.591Z,18.70
2018-07-20T00:42:46.222Z,18.60
2018-07-20T00:44:50.796Z,18.50
2018-07-20T00:46:55.282Z,18.40
2018-07-20T00:48:59.927Z,18.20
2018-07-20T00:51:04.472Z,18.00
2018-07-20T00:53:09.120Z,17.90
2018-07-20T00:55:13.757Z,17.90
2018-07-20T00:57:18.313Z,17.90
2018-07-20T00:59:23.068Z,17.90
2018-07-20T01:01:27.718Z,17.90
2018-07-20T01:03:32.285Z,17.90
2018-07-20T01:05:36.834Z,17.90
2018-07-20T01:07:41.371Z,17.90
2018-07-20T01:09:45.927Z,18.00
2018-07-20T01:11:50.486Z,18.00
2018-07-20T01:13:55.033Z,18.00
2018-07-20T01:15:59.446Z,17.90
2018-07-20T01:18:04.044Z,17.90
2018-07-20T01:20:08.827Z,17.90
2018-07-20T01:22:13.474Z,18.00
2018-07-20T01:24:18.055Z,17.90
2018-07-20T01:26:23.596Z,17.90
2018-07-20T01:28:28.165Z,17.90
2018-07-20T01:30:32.682Z,17.90
2018-07-20T01:32:37.298Z,17.80
2018-07-20T01:34:41.996Z,17.80
2018-07-20T01:36:47.132Z,17.80
2018-07-20T01:38:51.739Z,17.70
2018-07-20T01:40:56.263Z,17.70
2018-07-20T01:43:00.870Z,17.60
2018-07-20T01:47:09.560Z,17.60
2018-07-20T01:49:14.120Z,17.50
2018-07-20T01:51:18.668Z,17.60
2018-07-20T01:53:23.327Z,17.50
2018-07-20T01:55:27.912Z,17.50
2018-07-20T01:57:32.639Z,17.50
2018-07-20T01:59:37.209Z,17.40
2018-07-20T02:01:41.780Z,17.40
2018-07-20T02:03:46.270Z,17.40
2018-07-20T02:05:50.943Z,17.30
2018-07-20T02:07:55.439Z,17.30
2018-07-20T02:09:59.994Z,17.20
2018-07-20T02:12:04.462Z,17.20
2018-07-20T02:14:09.078Z,17.10
2018-07-20T02:16:13.890Z,17.10
2018-07-20T02:18:18.402Z,17.00
2018-07-20T02:20:22.996Z,17.00
2018-07-20T02:22:27.566Z,17.00
2018-07-20T02:24:32.121Z,17.00
2018-07-20T02:26:36.702Z,17.00
2018-07-20T02:28:41.199Z,16.90
2018-07-20T02:30:45.933Z,16.90
2018-07-20T02:32:51.112Z,16.90
2018-07-20T02:34:55.728Z,16.90
2018-07-20T02:37:00.293Z,16.90
2018-07-20T02:39:09.986Z,16.80
2018-07-20T02:41:14.602Z,16.90
2018-07-20T02:43:19.239Z,16.80
2018-07-20T02:45:23.754Z,16.80
2018-07-20T02:47:28.384Z,16.80
2018-07-20T02:49:32.929Z,16.80
2018-07-20T02:51:38.531Z,16.80
2018-07-20T02:53:43.090Z,16.80
2018-07-20T02:55:47.641Z,16.80
2018-07-20T02:57:52.673Z,16.80
2018-07-20T02:59:57.223Z,16.80
2018-07-20T03:02:01.871Z,16.70
2018-07-20T03:04:06.362Z,16.60
2018-07-20T03:06:10.886Z,16.60
2018-07-20T03:08:15.489Z,16.60
2018-07-20T03:10:19.996Z,16.50
2018-07-20T03:12:24.643Z,16.50
2018-07-20T03:14:29.222Z,16.50
2018-07-20T03:16:33.772Z,16.40
2018-07-20T03:18:38.357Z,16.40
2018-07-20T03:20:43.111Z,16.30
2018-07-20T03:22:47.742Z,16.40
2018-07-20T03:24:52.276Z,16.30
2018-07-20T03:26:56.876Z,16.30
2018-07-20T03:29:01.443Z,16.20
2018-07-20T03:31:05.954Z,16.20
2018-07-20T03:33:10.644Z,16.10
2018-07-20T03:35:15.166Z,16.10
2018-07-20T03:37:20.343Z,16.00
2018-07-20T03:39:24.908Z,16.00
2018-07-20T03:41:29.466Z,16.00
2018-07-20T03:43:33.998Z,16.00
2018-07-20T03:45:38.431Z,16.00
2018-07-20T03:47:43.042Z,15.90
2018-07-20T03:49:48.565Z,15.90
2018-07-20T03:51:53.067Z,15.80
2018-07-20T03:53:57.608Z,15.80
2018-07-20T03:56:02.096Z,15.70
2018-07-20T03:58:06.728Z,15.70
2018-07-20T04:00:11.356Z,15.60
2018-07-20T04:02:15.863Z,15.60
2018-07-20T04:04:20.412Z,15.60
2018-07-20T04:06:24.899Z,15.60
2018-07-20T04:08:29.372Z,15.60
2018-07-20T04:10:33.915Z,15.60
2018-07-20T04:14:42.520Z,15.70
2018-07-20T04:16:46.988Z,15.70
2018-07-20T04:18:51.531Z,15.80
2018-07-20T04:20:56.085Z,15.80
2018-07-20T04:23:00.634Z,15.90
2018-07-20T04:25:05.474Z,15.80
2018-07-20T04:27:10.017Z,15.80
2018-07-20T04:29:14.738Z,15.80
2018-07-20T04:31:19.369Z,15.80
2018-07-20T04:33:23.938Z,15.70
2018-07-20T04:35:28.905Z,15.70
2018-07-20T04:37:33.432Z,15.70
2018-07-20T04:39:37.965Z,15.70
2018-07-20T04:41:43.194Z,15.60
2018-07-20T04:43:47.748Z,15.60
2018-07-20T04:45:52.309Z,15.60
2018-07-20T04:47:56.800Z,15.60
2018-07-20T04:50:01.347Z,15.60
2018-07-20T04:52:05.868Z,15.60
2018-07-20T04:54:10.343Z,15.60
2018-07-20T04:58:19.155Z,15.70
2018-07-20T05:00:24.511Z,15.70
2018-07-20T05:02:29.074Z,15.70
2018-07-20T05:04:33.753Z,15.80
2018-07-20T05:06:38.543Z,15.80
2018-07-20T05:08:43.052Z,15.80
2018-07-20T05:10:47.585Z,15.80
2018-07-20T05:12:52.103Z,15.80
2018-07-20T05:14:56.628Z,15.70
2018-07-20T05:17:01.138Z,15.70
2018-07-20T05:19:05.795Z,15.70
2018-07-20T05:21:10.278Z,15.70
2018-07-20T05:23:14.848Z,15.70
2018-07-20T05:25:19.368Z,15.70
2018-07-20T05:27:23.989Z,15.70
2018-07-20T05:29:28.517Z,15.70
2018-07-20T05:31:33.051Z,15.70
2018-07-20T05:33:37.649Z,15.70
2018-07-20T05:35:42.199Z,15.80
2018-07-20T05:37:46.712Z,15.80
2018-07-20T05:39:51.244Z,15.80
2018-07-20T05:41:55.803Z,15.90
2018-07-20T05:44:00.406Z,16.00
2018-07-20T05:46:04.931Z,16.10
2018-07-20T05:48:09.512Z,16.30
2018-07-20T05:50:13.983Z,16.50
2018-07-20T05:52:18.541Z,16.60
2018-07-20T05:54:23.209Z,16.80
2018-07-20T05:56:27.759Z,17.10
2018-07-20T06:00:36.643Z,17.40
2018-07-20T06:02:41.198Z,17.70
2018-07-20T06:04:46.879Z,17.90
2018-07-20T06:06:51.412Z,18.00
2018-07-20T06:08:56.138Z,18.20
2018-07-20T06:11:00.816Z,18.50
2018-07-20T06:13:05.447Z,18.70
2018-07-20T06:15:09.991Z,18.90
2018-07-20T06:17:14.458Z,19.10
2018-07-20T06:19:19.003Z,19.20
2018-07-20T06:21:23.599Z,19.40
2018-07-20T06:23:28.175Z,19.60
2018-07-20T06:25:32.688Z,19.70
2018-07-20T06:27:37.268Z,19.90
2018-07-20T06:29:41.843Z,20.00
2018-07-20T06:31:46.300Z,20.10
2018-07-20T06:35:54.932Z,20.40
2018-07-20T06:37:59.567Z,20.60
2018-07-20T06:42:08.168Z,20.90
2018-07-20T06:44:12.694Z,21.00
2018-07-20T06:48:21.193Z,21.30
2018-07-20T06:50:26.083Z,21.40
2018-07-20T06:52:30.589Z,21.50
2018-07-20T06:54:35.164Z,21.60
2018-07-20T06:56:39.857Z,21.70
2018-07-20T06:58:44.377Z,21.80
2018-07-20T07:00:48.814Z,22.00
2018-07-20T07:02:53.291Z,22.10
2018-07-20T07:04:57.825Z,22.20
2018-07-20T07:07:02.592Z,22.40
2018-07-20T07:09:09.113Z,22.50
2018-07-20T07:11:13.715Z,22.60
2018-07-20T07:15:22.189Z,22.90
2018-07-20T07:17:26.705Z,23.10
2018-07-20T07:19:31.285Z,23.20
2018-07-20T07:21:35.820Z,23.30
2018-07-20T07:23:40.430Z,23.40
2018-07-20T07:25:44.926Z,23.60
2018-07-20T07:27:49.521Z,23.70
2018-07-20T07:29:54.143Z,23.80
2018-07-20T07:31:59.282Z,23.90
2018-07-20T07:34:04.007Z,24.00
2018-07-20T07:36:08.592Z,24.20
2018-07-20T07:38:13.088Z,24.30
2018-07-20T07:40:17.578Z,24.40
2018-07-20T07:42:22.059Z,24.50
2018-07-20T07:44:26.546Z,24.60
2018-07-20T07:46:31.039Z,24.90
2018-07-20T07:48:35.556Z,25.00
2018-07-20T07:52:44.049Z,25.20
2018-07-20T07:54:48.689Z,25.40
2018-07-20T07:56:53.201Z,25.50
2018-07-20T07:58:57.733Z,25.50
2018-07-20T08:03:06.339Z,25.70
2018-07-20T08:05:10.842Z,25.80
2018-07-20T08:07:15.251Z,25.90
2018-07-20T08:09:19.827Z,25.90
2018-07-20T08:11:24.332Z,26.00
2018-07-20T08:13:28.902Z,26.10
2018-07-20T08:15:33.502Z,26.30
2018-07-20T08:17:38.170Z,26.50
2018-07-20T08:19:42.691Z,26.70
2018-07-20T08:21:47.164Z,26.80
2018-07-20T08:23:51.835Z,26.90
2018-07-20T08:25:56.412Z,27.10
2018-07-20T08:28:01.067Z,27.20
2018-07-20T08:30:06.810Z,27.30
2018-07-20T08:32:11.519Z,27.40
2018-07-20T08:34:26.099Z,27.70
2018-07-20T08:36:33.686Z,27.80
2018-07-20T08:38:42.536Z,27.90
2018-07-20T08:40:48.888Z,28.20
2018-07-20T08:42:54.195Z,28.40
2018-07-20T08:44:58.719Z,28.60
2018-07-20T08:47:03.373Z,28.80
2018-07-20T08:49:07.951Z,28.90
2018-07-20T08:51:12.516Z,29.00
2018-07-20T08:53:16.999Z,28.90
2018-07-20T08:55:21.623Z,29.00
2018-07-20T08:57:26.101Z,29.10
2018-07-20T08:59:30.616Z,29.30
2018-07-20T09:01:35.132Z,29.40
2018-07-20T09:03:39.722Z,29.60
2018-07-20T09:05:44.254Z,29.70
2018-07-20T09:07:50.691Z,29.90
2018-07-20T09:09:55.315Z,30.10
2018-07-20T09:12:00.349Z,30.00
2018-07-20T09:14:10.413Z,29.90
2018-07-20T09:16:15.439Z,29.70
2018-07-20T09:18:20.077Z,29.60
2018-07-20T09:20:24.990Z,29.60
2018-07-20T09:22:29.463Z,29.60
2018-07-20T09:24:34.534Z,29.60
2018-07-20T09:26:39.216Z,29.60
2018-07-20T09:28:43.766Z,29.70
2018-07-20T09:30:48.321Z,29.90
2018-07-20T09:32:54.363Z,29.80
2018-07-20T09:34:59.049Z,29.80
2018-07-20T09:37:03.694Z,29.90
2018-07-20T09:39:10.125Z,29.80
2018-07-20T09:41:14.885Z,29.80
2018-07-20T09:43:19.587Z,29.90
2018-07-20T09:45:24.197Z,30.10
2018-07-20T09:47:28.753Z,30.20
2018-07-20T09:49:33.334Z,30.40
2018-07-20T09:51:38.427Z,30.60
2018-07-20T09:55:47.902Z,31.00
2018-07-20T09:57:52.526Z,31.20
2018-07-20T09:59:57.210Z,31.40
2018-07-20T10:02:01.820Z,31.60
2018-07-20T10:04:06.587Z,31.70
2018-07-20T10:06:11.068Z,31.70
2018-07-20T10:08:15.863Z,31.60
2018-07-20T10:10:20.479Z,31.70
2018-07-20T10:12:25.055Z,31.60
2018-07-20T10:14:29.765Z,31.40
2018-07-20T10:16:34.453Z,31.10
2018-07-20T10:18:38.965Z,31.00
2018-07-20T10:20:43.539Z,31.20
2018-07-20T10:22:48.177Z,31.40
2018-07-20T10:24:52.744Z,31.70
2018-07-20T10:26:57.411Z,31.80
2018-07-20T10:29:01.972Z,32.20
2018-07-20T10:31:07.507Z,32.30
2018-07-20T10:33:12.091Z,32.20
2018-07-20T10:35:16.631Z,32.10
2018-07-20T10:37:21.138Z,32.10
2018-07-20T10:39:25.633Z,31.80
2018-07-20T10:41:30.168Z,31.40
2018-07-20T10:43:34.651Z,31.00
2018-07-20T10:45:39.262Z,31.10
2018-07-20T10:47:43.781Z,31.20
2018-07-20T10:49:48.437Z,31.50
2018-07-20T10:51:52.876Z,31.80
2018-07-20T10:53:57.417Z,31.80
2018-07-20T10:56:02.063Z,31.70
2018-07-20T10:58:06.995Z,31.70
2018-07-20T11:00:11.791Z,31.80
2018-07-20T11:02:16.278Z,31.90
2018-07-20T11:04:20.789Z,31.80
2018-07-20T11:06:25.336Z,32.00
2018-07-20T11:08:32.242Z,31.90
2018-07-20T11:10:36.961Z,31.60
2018-07-20T11:12:41.459Z,31.40
2018-07-20T11:14:52.638Z,31.30
2018-07-20T11:16:57.147Z,31.10
2018-07-20T11:19:01.744Z,31.10
2018-07-20T11:21:06.348Z,31.20
2018-07-20T11:23:10.901Z,31.50
2018-07-20T11:25:15.670Z,31.70
2018-07-20T11:27:20.440Z,31.50
2018-07-20T11:29:25.164Z,31.30
2018-07-20T11:35:39.082Z,31.10
2018-07-20T11:37:43.608Z,31.50
2018-07-20T11:39:48.131Z,31.70
2018-07-20T11:41:52.642Z,32.00
2018-07-20T11:43:57.559Z,32.20
2018-07-20T11:46:02.067Z,32.40
2018-07-20T11:48:06.683Z,32.50
2018-07-20T11:50:11.262Z,32.40
2018-07-20T11:52:15.844Z,32.40
2018-07-20T11:54:20.278Z,32.50
2018-07-20T11:56:24.787Z,32.50
2018-07-20T11:58:29.293Z,32.40
2018-07-20T12:00:34.010Z,32.40
2018-07-20T12:02:38.476Z,32.30
2018-07-20T12:04:43.076Z,32.30
2018-07-20T12:06:47.628Z,32.30
2018-07-20T12:08:52.069Z,32.40
2018-07-20T12:10:56.691Z,32.40
2018-07-20T12:13:01.128Z,32.70
2018-07-20T12:15:06.395Z,32.90
2018-07-20T12:17:11.622Z,32.90
2018-07-20T12:19:16.097Z,32.90
2018-07-20T12:21:20.584Z,32.80
2018-07-20T12:23:25.251Z,32.90
2018-07-20T12:25:29.857Z,32.90
2018-07-20T12:27:34.402Z,32.90
2018-07-20T12:29:39.092Z,32.90
2018-07-20T12:31:44.036Z,32.70
2018-07-20T12:33:48.504Z,32.50
2018-07-20T12:35:53.158Z,32.30
2018-07-20T12:37:57.672Z,32.00
2018-07-20T12:40:02.407Z,32.00
2018-07-20T12:42:07.048Z,32.00
2018-07-20T12:44:11.594Z,32.00
2018-07-20T12:46:16.233Z,32.00
2018-07-20T12:48:20.810Z,32.10
2018-07-20T12:50:25.314Z,32.20
2018-07-20T12:52:29.919Z,32.20
2018-07-20T12:54:34.577Z,32.00
2018-07-20T12:56:39.329Z,32.00
2018-07-20T12:58:44.044Z,32.10
2018-07-20T13:00:48.580Z,32.00
2018-07-20T13:02:53.047Z,32.00
2018-07-20T13:04:57.540Z,31.90
2018-07-20T13:07:02.088Z,31.90
2018-07-20T13:09:09.462Z,32.10
2018-07-20T13:11:14.036Z,32.30
2018-07-20T13:13:18.638Z,32.50
2018-07-20T13:15:23.324Z,32.70
2018-07-20T13:17:27.921Z,33.00
2018-07-20T13:19:32.429Z,33.20
2018-07-20T13:21:36.982Z,33.10
2018-07-20T13:23:41.476Z,33.10
2018-07-20T13:25:45.982Z,33.00
2018-07-20T13:27:50.515Z,32.90
2018-07-20T13:29:55.104Z,32.70
2018-07-20T13:31:59.658Z,32.60
2018-07-20T13:34:04.183Z,32.60
2018-07-20T13:36:09.517Z,32.60
2018-07-20T13:38:14.014Z,32.40
2018-07-20T13:42:22.551Z,32.50
2018-07-20T13:44:27.015Z,32.60
2018-07-20T13:46:31.563Z,32.70
2018-07-20T13:48:36.002Z,32.90
2018-07-20T13:50:40.541Z,33.10
2018-07-20T13:52:45.054Z,33.20
2018-07-20T13:54:49.625Z,33.20
2018-07-20T13:56:54.149Z,33.20
2018-07-20T13:58:58.710Z,33.30
2018-07-20T14:01:03.320Z,33.40
2018-07-20T14:03:07.786Z,33.40
2018-07-20T14:05:12.317Z,33.30
2018-07-20T14:07:16.836Z,33.30
2018-07-20T14:09:21.455Z,33.20
2018-07-20T14:11:26.139Z,33.30
2018-07-20T14:13:30.983Z,33.20
2018-07-20T14:15:35.556Z,33.10
2018-07-20T14:17:40.171Z,32.90
2018-07-20T14:19:44.748Z,32.70
2018-07-20T14:21:49.539Z,32.50
2018-07-20T14:23:54.286Z,32.40
2018-07-20T14:25:59.033Z,32.20
2018-07-20T14:28:03.769Z,32.10
2018-07-20T14:30:08.328Z,32.00
2018-07-20T14:32:12.927Z,31.80
2018-07-20T14:34:17.497Z,31.60
2018-07-20T14:36:22.154Z,31.30
2018-07-20T14:38:28.675Z,31.20
2018-07-20T14:40:33.737Z,30.90
2018-07-20T14:42:38.995Z,30.70
2018-07-20T14:44:43.650Z,30.60
2018-07-20T14:46:48.369Z,30.40
2018-07-20T14:48:52.831Z,30.40
2018-07-20T14:50:57.425Z,30.30
2018-07-20T14:53:01.917Z,30.30
2018-07-20T14:55:06.454Z,30.20
2018-07-20T14:57:11.013Z,30.20
2018-07-20T14:59:15.516Z,30.10
2018-07-20T15:01:20.185Z,30.00
2018-07-20T15:03:24.741Z,29.90
2018-07-20T15:05:29.284Z,29.90
2018-07-20T15:07:33.908Z,29.80
2018-07-20T15:09:38.517Z,29.80
2018-07-20T15:11:43.018Z,29.70
2018-07-20T15:13:47.957Z,29.60
2018-07-20T15:15:52.588Z,29.60
2018-07-20T15:17:57.168Z,29.50
2018-07-20T15:20:01.695Z,29.50
2018-07-20T15:22:06.481Z,29.50
2018-07-20T15:24:10.964Z,29.50
2018-07-20T15:26:15.539Z,29.50
2018-07-20T15:28:19.988Z,29.50
2018-07-20T15:30:24.552Z,29.50
2018-07-20T15:32:29.144Z,29.50
2018-07-20T15:34:33.689Z,29.50
2018-07-20T15:36:38.278Z,29.50
2018-07-20T15:38:42.821Z,29.60
2018-07-20T15:40:47.347Z,29.70
2018-07-20T15:42:51.895Z,29.70
2018-07-20T15:44:56.480Z,29.70
2018-07-20T15:47:01.261Z,29.70
2018-07-20T15:49:06.393Z,29.70
2018-07-20T15:51:10.978Z,29.70
2018-07-20T15:53:42.680Z,29.70
2018-07-20T15:55:21.583Z,29.70
2018-07-20T15:57:26.203Z,29.70
2018-07-20T15:59:30.731Z,29.60
2018-07-20T16:01:35.354Z,29.60
2018-07-20T16:03:39.897Z,29.60
2018-07-20T16:05:44.447Z,29.60
2018-07-20T16:07:48.928Z,29.60
2018-07-20T16:09:53.424Z,29.80
2018-07-20T16:14:01.995Z,30.00
2018-07-20T16:16:06.546Z,30.00
2018-07-20T16:18:11.132Z,30.00
2018-07-20T16:20:15.699Z,30.00
2018-07-20T16:22:20.362Z,29.90
2018-07-20T16:24:24.910Z,29.90
2018-07-20T16:26:29.532Z,29.80
2018-07-20T16:28:34.059Z,29.80
2018-07-20T16:30:38.625Z,29.80
2018-07-20T16:32:43.159Z,29.70
2018-07-20T16:34:47.920Z,29.60
2018-07-20T16:36:52.400Z,29.50
2018-07-20T16:38:56.983Z,29.40
2018-07-20T16:41:01.541Z,29.40
2018-07-20T16:43:07.326Z,29.30
2018-07-20T16:45:11.834Z,29.30
2018-07-20T16:47:16.382Z,29.20
2018-07-20T16:49:20.903Z,29.20
2018-07-20T16:51:25.406Z,29.10
2018-07-20T16:53:30.020Z,29.10
2018-07-20T16:55:34.580Z,29.00
2018-07-20T16:57:39.124Z,29.00
2018-07-20T16:59:43.578Z,29.00
2018-07-20T17:01:48.751Z,29.00
2018-07-20T17:03:53.575Z,29.00
2018-07-20T17:08:02.050Z,29.00
2018-07-20T17:10:06.622Z,28.90
2018-07-20T17:12:11.134Z,29.00
2018-07-20T17:14:15.692Z,29.00
2018-07-20T17:16:20.231Z,28.90
2018-07-20T17:18:24.764Z,28.90
2018-07-20T17:20:29.214Z,28.80
2018-07-20T17:22:33.753Z,28.80
2018-07-20T17:24:38.240Z,28.80
2018-07-20T17:26:42.733Z,28.70
2018-07-20T17:28:47.236Z,28.70
2018-07-20T17:30:51.895Z,28.60
2018-07-20T17:32:58.214Z,28.60
2018-07-20T17:35:02.768Z,28.60
2018-07-20T17:37:07.388Z,28.50
2018-07-20T17:39:12.934Z,28.50
2018-07-20T17:41:18.556Z,28.40
2018-07-20T17:43:23.236Z,28.40
2018-07-20T17:45:29.673Z,28.40
2018-07-20T17:47:34.319Z,28.30
2018-07-20T17:49:38.963Z,28.30
2018-07-20T17:51:43.633Z,28.20
2018-07-20T17:53:48.141Z,28.20
2018-07-20T17:55:52.911Z,28.10
2018-07-20T17:57:57.429Z,28.00
2018-07-20T18:00:01.940Z,28.00
2018-07-20T18:02:06.714Z,27.90
2018-07-20T18:04:11.314Z,27.80
2018-07-20T18:06:15.831Z,27.70
2018-07-20T18:08:20.336Z,27.70
2018-07-20T18:10:24.963Z,27.60
2018-07-20T18:12:29.481Z,27.60
2018-07-20T18:14:33.987Z,27.50
2018-07-20T18:16:38.475Z,27.50
2018-07-20T18:18:43.014Z,27.40
2018-07-20T18:20:47.879Z,27.40
2018-07-20T18:22:52.429Z,27.30
2018-07-20T18:24:56.919Z,27.30
2018-07-20T18:27:01.579Z,27.30
2018-07-20T18:29:06.305Z,27.20
2018-07-20T18:31:10.886Z,27.10
2018-07-20T18:33:15.405Z,27.20
2018-07-20T18:35:20.072Z,27.10
2018-07-20T18:39:28.636Z,27.00
2018-07-20T18:41:33.370Z,27.00
2018-07-20T18:43:37.967Z,26.90
2018-07-20T18:45:42.494Z,26.90
2018-07-20T18:47:47.018Z,26.80
2018-07-20T18:49:51.830Z,26.80
2018-07-20T18:51:56.388Z,26.80
2018-07-20T18:54:00.886Z,26.70
2018-07-20T18:56:05.618Z,26.70
2018-07-20T19:00:14.096Z,26.60
2018-07-20T19:02:18.539Z,26.50
2018-07-20T19:04:23.113Z,26.50
2018-07-20T19:06:27.649Z,26.50
2018-07-20T19:08:32.137Z,26.50
2018-07-20T19:10:36.721Z,26.40
2018-07-20T19:12:42.336Z,26.30
2018-07-20T19:16:51.278Z,26.20
2018-07-20T19:18:55.781Z,26.20
2018-07-20T19:21:00.749Z,26.10
2018-07-20T19:23:05.233Z,26.10
2018-07-20T19:25:09.686Z,26.00
2018-07-20T19:27:14.308Z,26.00
2018-07-20T19:29:18.764Z,25.90
2018-07-20T19:31:23.357Z,25.90
2018-07-20T19:33:27.848Z,25.80
2018-07-20T19:35:32.329Z,25.80
2018-07-20T19:37:36.805Z,25.70
2018-07-20T19:39:41.387Z,25.70
2018-07-20T19:41:45.879Z,25.60
2018-07-20T19:43:50.571Z,25.50
2018-07-20T19:45:57.546Z,25.50
2018-07-20T19:48:02.806Z,25.50
2018-07-20T19:50:07.379Z,25.40
2018-07-20T19:52:11.903Z,25.30
2018-07-20T19:54:16.527Z,25.30
2018-07-20T19:56:21.022Z,25.20
2018-07-20T19:58:25.452Z,25.20
2018-07-20T20:00:30.002Z,25.00
2018-07-20T20:02:34.635Z,25.00
2018-07-20T20:04:39.123Z,25.00
2018-07-20T20:06:43.799Z,25.00
2018-07-20T20:08:48.395Z,24.90
2018-07-20T20:10:53.945Z,24.90
2018-07-20T20:12:58.669Z,24.90
2018-07-20T20:15:03.330Z,24.90
2018-07-20T20:17:10.282Z,24.80
2018-07-20T20:19:16.013Z,24.80
2018-07-20T20:21:20.652Z,24.80
2018-07-20T20:23:25.990Z,24.70
2018-07-20T20:25:32.254Z,24.60
2018-07-20T20:27:37.213Z,24.50
2018-07-20T20:29:42.312Z,24.50
2018-07-20T20:31:46.826Z,24.40
2018-07-20T20:33:51.335Z,24.40
2018-07-20T20:35:55.912Z,24.30
2018-07-20T20:38:01.172Z,24.30
2018-07-20T20:40:07.209Z,24.20
2018-07-20T20:42:11.728Z,24.20
2018-07-20T20:44:17.154Z,24.10
2018-07-20T20:46:21.921Z,24.10
2018-07-20T20:48:26.484Z,24.10
2018-07-20T20:50:30.980Z,24.00
2018-07-20T20:54:40.863Z,23.80
2018-07-20T20:56:45.384Z,23.80
2018-07-20T20:58:50.152Z,23.80
2018-07-20T21:00:55.812Z,23.70
2018-07-20T21:03:00.687Z,23.60
2018-07-20T21:05:05.582Z,23.60
2018-07-20T21:07:10.288Z,23.70
2018-07-20T21:09:16.431Z,23.60
2018-07-20T21:11:21.027Z,23.70
2018-07-20T21:13:26.366Z,23.70
2018-07-20T21:15:31.071Z,23.70
2018-07-20T21:17:35.671Z,23.50
2018-07-20T21:19:40.278Z,23.40
2018-07-20T21:21:44.817Z,23.30
2018-07-20T21:23:49.362Z,23.20
2018-07-20T21:25:54.041Z,23.10
2018-07-20T21:27:58.703Z,23.10
2018-07-20T21:30:03.218Z,23.10
2018-07-20T21:32:07.941Z,23.10
2018-07-20T21:34:12.501Z,23.10
2018-07-20T21:36:17.168Z,23.10
2018-07-20T21:38:21.789Z,23.10
2018-07-20T21:40:26.310Z,23.10
2018-07-20T21:42:30.839Z,23.20
2018-07-20T21:44:35.331Z,23.20
2018-07-20T21:46:40.251Z,23.20
2018-07-20T21:48:44.842Z,23.10
2018-07-20T21:50:49.427Z,23.10
2018-07-20T21:52:53.971Z,23.10
2018-07-20T21:54:58.684Z,23.10
2018-07-20T21:57:03.211Z,23.10
2018-07-20T21:59:07.760Z,23.10
2018-07-20T22:01:12.344Z,23.00
2018-07-20T22:03:16.796Z,22.90
2018-07-20T22:05:21.282Z,22.90
2018-07-20T22:07:25.836Z,22.90
2018-07-20T22:09:30.381Z,22.90
2018-07-20T22:11:34.975Z,22.90
2018-07-20T22:13:39.491Z,22.90
2018-07-20T22:15:44.069Z,22.90
2018-07-20T22:17:48.587Z,22.90
2018-07-20T22:19:53.183Z,22.90
2018-07-20T22:21:57.731Z,22.90
2018-07-20T22:24:02.272Z,22.90
2018-07-20T22:26:06.811Z,22.90
2018-07-20T22:28:11.428Z,22.90
2018-07-20T22:30:15.996Z,22.90
2018-07-20T22:32:20.495Z,22.90
2018-07-20T22:34:25.108Z,22.70
2018-07-20T22:36:29.635Z,22.60
2018-07-20T22:38:34.106Z,22.60
2018-07-20T22:40:38.668Z,22.50
2018-07-20T22:42:43.205Z,22.50
2018-07-20T22:44:47.771Z,22.50
2018-07-20T22:46:52.313Z,22.40
2018-07-20T22:48:56.838Z,22.30
2018-07-20T22:51:01.310Z,22.20
2018-07-20T22:53:05.907Z,22.20
2018-07-20T22:55:10.878Z,22.20
2018-07-20T22:57:15.432Z,22.20
2018-07-20T22:59:19.978Z,22.20
2018-07-20T23:01:24.447Z,22.30
2018-07-20T23:03:29.014Z,22.30
2018-07-20T23:05:33.516Z,22.20
2018-07-20T23:07:38.113Z,22.20
2018-07-20T23:09:42.757Z,22.10
2018-07-20T23:13:51.364Z,22.20
2018-07-20T23:15:55.929Z,22.10
2018-07-20T23:18:00.499Z,22.10
2018-07-20T23:20:05.583Z,22.10
2018-07-20T23:22:10.053Z,22.10
2018-07-20T23:24:14.561Z,22.00
2018-07-20T23:26:19.219Z,22.00
2018-07-20T23:28:23.794Z,22.00
2018-07-20T23:30:28.431Z,21.90
2018-07-20T23:32:32.937Z,21.90
2018-07-20T23:34:37.574Z,21.90
2018-07-20T23:36:42.158Z,21.90
2018-07-20T23:38:46.829Z,21.90
2018-07-20T23:40:51.372Z,21.90
2018-07-20T23:44:59.954Z,21.90
2018-07-20T23:47:04.712Z,21.90
2018-07-20T23:49:09.218Z,21.90
2018-07-20T23:51:14.299Z,21.90
2018-07-20T23:53:19.507Z,21.90
2018-07-20T23:55:24.827Z,21.80
2018-07-20T23:57:29.414Z,21.80
2018-07-20T23:59:33.998Z,21.80
